Time;durP1;ratioP1;P1;durP2;ratioP2;P2;SDS_P1;SDS_P2;PMS_P1;PMS_P2;Temp;Humidity;BMP_temperature;BMP_pressure;BME280_temperature;BME280_humidity;BME280_pressure;Samples;Min_cycle;Max_cycle;Signal;HPM_P1;HPM_P2
2021/01/03 00:02:12;;;;;;;;;27.50;23.50;;;;;13.52;51.96;98209.47;6025336;22;102821;-82
2021/01/03 00:04:39;;;;;;;;;29.75;26.75;;;;;13.51;51.82;98217.84;6028666;22;102737;-81
2021/01/03 00:07:06;;;;;;;;;28.50;27.50;;;;;13.51;51.57;98218.66;6001752;22;104261;-81
2021/01/03 00:09:33;;;;;;;;;33.75;28.00;;;;;13.50;51.67;98221.63;6026162;22;102573;-82
2021/01/03 00:12:00;;;;;;;;;30.50;25.00;;;;;13.50;51.86;98216.19;6022344;22;102576;-81
2021/01/03 00:14:30;;;;;;;;;30.25;26.75;;;;;13.49;52.21;98219.97;5999965;22;102952;-81
2021/01/03 00:17:00;;;;;;;;;27.25;24.75;;;;;13.49;52.56;98214.53;5993824;22;103956;-82
2021/01/03 00:19:27;;;;;;;;;30.25;26.50;;;;;13.49;51.58;98214.53;6003544;22;103322;-81
2021/01/03 00:21:54;;;;;;;;;34.50;27.75;;;;;13.47;52.19;98219.34;5996177;22;102839;-81
2021/01/03 00:24:21;;;;;;;;;26.50;24.50;;;;;13.46;52.57;98220.44;5991661;22;102841;-82
2021/01/03 00:26:48;;;;;;;;;24.25;22.50;;;;;13.45;52.33;98227.75;6028187;22;104117;-82
2021/01/03 00:29:16;;;;;;;;;30.25;26.25;;;;;13.46;52.16;98223.16;6025538;22;102618;-82
2021/01/03 00:31:43;;;;;;;;;23.50;21.00;;;;;13.45;51.93;98213.34;6001454;22;103036;-81
2021/01/03 00:34:11;;;;;;;;;28.25;24.50;;;;;13.45;51.88;98216.06;6022779;22;102764;-82
2021/01/03 00:36:38;;;;;;;;;34.75;29.25;;;;;13.43;52.45;98226.28;6022223;22;104213;-82
2021/01/03 00:39:05;;;;;;;;;28.25;25.50;;;;;13.42;52.65;98216.50;6022500;22;102570;-82
2021/01/03 00:41:31;;;;;;;;;29.00;25.75;;;;;13.42;51.88;98216.50;6024496;22;104156;-82
2021/01/03 00:43:58;;;;;;;;;24.00;22.00;;;;;13.42;52.16;98211.09;6018922;22;102976;-81
2021/01/03 00:46:25;;;;;;;;;26.25;24.00;;;;;13.42;52.53;98221.94;6015153;22;104358;-81
2021/01/03 00:48:52;;;;;;;;;32.75;28.50;;;;;13.40;52.49;98206.69;6025431;22;102727;-81
2021/01/03 00:51:19;;;;;;;;;33.75;27.00;;;;;13.39;52.44;98215.91;6024912;22;102533;-81
2021/01/03 00:53:46;;;;;;;;;30.75;26.25;;;;;13.39;52.42;98215.91;6027269;22;102758;-81
2021/01/03 00:56:12;;;;;;;;;37.75;27.75;;;;;13.38;52.04;98211.53;6019352;22;107880;-81
2021/01/03 00:58:39;;;;;;;;;30.75;28.25;;;;;13.40;51.49;98214.84;5991184;22;102750;-81
2021/01/03 01:01:06;;;;;;;;;29.75;23.50;;;;;13.39;51.86;98212.34;6021956;22;102742;-81
2021/01/03 01:03:32;;;;;;;;;33.75;28.00;;;;;13.38;52.22;98213.41;6021830;22;102567;-81
2021/01/03 01:05:59;;;;;;;;;30.25;27.00;;;;;13.37;51.29;98209.06;6020272;22;103937;-81
2021/01/03 01:08:26;;;;;;;;;28.50;25.25;;;;;13.37;52.49;98215.28;5993618;22;102533;-81
2021/01/03 01:10:52;;;;;;;;;11.25;7.75;;;;;13.37;51.51;98218.00;6023519;22;102752;-81
2021/01/03 01:13:19;;;;;;;;;28.25;25.75;;;;;13.36;51.80;98213.66;6023204;22;103042;-80
2021/01/03 01:15:46;;;;;;;;;24.00;19.00;;;;;13.36;51.77;98215.53;6027842;22;103740;-81
2021/01/03 01:18:13;;;;;;;;;33.50;27.75;;;;;13.32;52.41;98209.75;6001003;22;102630;-81
2021/01/03 01:20:40;;;;;;;;;23.50;19.50;;;;;13.33;51.29;98221.41;6026650;22;102502;-81
2021/01/03 01:23:07;;;;;;;;;33.00;28.00;;;;;13.32;52.44;98208.91;6025271;22;104394;-81
2021/01/03 01:25:34;;;;;;;;;29.50;25.50;;;;;13.34;52.42;98209.50;6026126;22;103971;-81
2021/01/03 01:28:01;;;;;;;;;31.25;27.25;;;;;13.33;52.06;98205.94;6023940;22;102747;-81
2021/01/03 01:30:29;;;;;;;;;33.25;26.00;;;;;13.30;52.17;98197.44;6015395;22;102712;-81
2021/01/03 01:32:56;;;;;;;;;27.25;26.25;;;;;13.30;51.49;98187.41;5998910;22;102553;-81
2021/01/03 01:35:26;;;;;;;;;30.00;24.00;;;;;13.29;52.13;98183.03;5991282;22;104131;-81
2021/01/03 01:37:53;;;;;;;;;26.75;23.75;;;;;13.29;52.48;98177.59;6021813;22;102558;-80
2021/01/03 01:40:26;;;;;;;;;31.75;26.25;;;;;13.29;52.03;98177.59;5991598;22;102634;-81
2021/01/03 01:42:53;;;;;;;;;24.75;21.50;;;;;13.30;51.78;98171.09;5969010;22;102868;-81
2021/01/03 01:45:23;;;;;;;;;27.50;26.50;;;;;13.28;51.74;98170.50;5948918;22;104353;-80
2021/01/03 01:47:51;;;;;;;;;32.25;26.00;;;;;13.27;52.28;98174.28;6001631;22;102752;-81
2021/01/03 01:50:23;;;;;;;;;24.25;22.50;;;;;13.26;51.21;98167.19;5978166;22;102626;-80
2021/01/03 01:52:52;;;;;;;;;29.00;24.50;;;;;13.24;51.83;98165.75;5946863;22;102834;-80
2021/01/03 01:55:27;;;;;;;;;25.25;23.75;;;;;13.26;51.45;98160.94;5998061;22;104290;-80
2021/01/03 01:57:56;;;;;;;;;19.25;17.00;;;;;13.25;51.21;98168.25;5973634;22;102679;-81
2021/01/03 02:00:25;;;;;;;;;28.00;25.00;;;;;13.26;52.12;98171.78;6017536;22;102786;-80
2021/01/03 02:03:21;;;;;;;;;23.50;22.00;;;;;13.24;51.68;98161.16;5966012;22;102760;-80
2021/01/03 02:05:51;;;;;;;;;30.25;24.00;;;;;13.25;52.04;98161.97;6006340;22;109804;-80
2021/01/03 02:08:32;;;;;;;;;27.00;23.00;;;;;13.23;52.27;98159.53;6009839;22;102903;-80
2021/01/03 02:10:59;;;;;;;;;23.25;22.25;;;;;13.22;51.93;98157.84;6018907;22;102510;-81
2021/01/03 02:13:33;;;;;;;;;27.75;24.75;;;;;13.23;51.14;98154.09;5997408;22;102705;-81
2021/01/03 02:16:06;;;;;;;;;23.00;21.75;;;;;13.23;51.70;98159.53;5994315;22;104234;-81
2021/01/03 02:18:32;;;;;;;;;25.75;24.00;;;;;13.19;51.38;98149.34;6016731;22;102834;-81
2021/01/03 02:21:21;;;;;;;;;25.25;22.75;;;;;13.20;52.19;98149.09;5997989;22;102587;-80
2021/01/03 02:24:07;;;;;;;;;27.50;25.00;;;;;13.20;52.20;98149.09;5995528;22;102905;-80
2021/01/03 02:26:37;;;;;;;;;20.50;20.25;;;;;13.19;51.72;98139.28;5995017;22;103980;-80
2021/01/03 02:29:05;;;;;;;;;24.75;22.75;;;;;13.19;51.51;98128.44;5997473;22;102500;-80
2021/01/03 02:31:37;;;;;;;;;24.50;20.25;;;;;13.19;51.41;98130.34;5994128;22;102554;-81
2021/01/03 02:34:05;;;;;;;;;26.50;23.50;;;;;13.17;52.12;98130.56;5972700;22;102803;-80
2021/01/03 02:36:39;;;;;;;;;22.25;21.75;;;;;13.16;51.22;98123.47;6019422;22;104393;-80
2021/01/03 02:39:26;;;;;;;;;25.75;23.75;;;;;13.14;51.65;98120.16;5970137;22;102674;-80
2021/01/03 02:41:54;;;;;;;;;23.25;21.00;;;;;13.14;51.80;98122.88;5933823;22;105988;-80
2021/01/03 02:44:21;;;;;;;;;27.75;23.50;;;;;13.14;51.81;98120.16;6021155;22;102818;-80
2021/01/03 02:46:49;;;;;;;;;20.75;19.00;;;;;13.13;51.23;98117.66;6024727;22;104015;-80
2021/01/03 02:49:16;;;;;;;;;22.50;20.00;;;;;13.14;52.10;98122.06;5998855;22;102411;-80
2021/01/03 02:51:42;;;;;;;;;23.25;21.50;;;;;13.13;52.07;98107.66;6016880;22;104429;-80
2021/01/03 02:54:09;;;;;;;;;32.75;21.50;;;;;13.14;51.64;98117.47;6024045;22;102788;-80
2021/01/03 02:56:36;;;;;;;;;25.25;21.00;;;;;13.12;51.78;98122.28;6020394;22;103917;-81
2021/01/03 02:59:04;;;;;;;;;24.50;19.75;;;;;13.11;51.16;98117.88;6019135;22;102851;-80
2021/01/03 03:01:30;;;;;;;;;28.25;21.75;;;;;13.11;51.35;98120.59;6020438;22;102501;-80
2021/01/03 03:03:57;;;;;;;;;31.50;23.25;;;;;13.10;51.79;98112.69;5996816;22;102873;-81
2021/01/03 03:06:24;;;;;;;;;22.00;20.25;;;;;13.10;51.69;98118.09;6018760;22;104233;-80
2021/01/03 03:08:50;;;;;;;;;23.00;21.00;;;;;13.09;51.43;98114.56;6017008;22;102793;-73
2021/01/03 03:11:17;;;;;;;;;21.50;19.50;;;;;13.08;51.83;98104.75;6023616;22;102916;-73
2021/01/03 03:13:44;;;;;;;;;21.75;20.25;;;;;13.08;51.14;98112.91;6015382;22;102790;-73
2021/01/03 03:16:11;;;;;;;;;29.00;21.50;;;;;13.08;51.14;98101.22;6009866;22;104510;-73
2021/01/03 03:18:37;;;;;;;;;25.50;22.00;;;;;13.07;51.68;98105.81;5994749;22;102524;-73
2021/01/03 03:21:04;;;;;;;;;26.25;21.50;;;;;13.06;51.17;98090.56;6019656;22;102807;-73
2021/01/03 03:23:31;;;;;;;;;26.75;22.00;;;;;13.05;51.96;98093.53;6020339;22;102764;-73
2021/01/03 03:25:58;;;;;;;;;27.25;23.75;;;;;13.06;51.73;98089.78;5993114;22;103951;-73
2021/01/03 03:28:24;;;;;;;;;27.00;21.75;;;;;13.06;51.29;98089.78;6022813;22;102633;-73
2021/01/03 03:30:51;;;;;;;;;24.25;23.00;;;;;13.04;51.66;98090.00;6019921;22;102539;-73
2021/01/03 03:33:18;;;;;;;;;24.25;24.00;;;;;13.04;51.17;98092.69;6002687;22;102788;-74
2021/01/03 03:35:44;;;;;;;;;23.00;21.50;;;;;13.04;51.08;98092.69;6017848;22;108975;-73
2021/01/03 03:38:11;;;;;;;;;19.50;19.00;;;;;13.03;51.99;98091.03;6021073;22;102815;-73
2021/01/03 03:40:38;;;;;;;;;26.25;22.50;;;;;13.05;51.03;98088.94;6019374;22;102910;-73
2021/01/03 03:43:07;;;;;;;;;19.75;18.00;;;;;13.05;51.92;98085.38;6023967;22;102837;-73
2021/01/03 03:45:34;;;;;;;;;23.50;22.25;;;;;13.04;51.86;98079.13;6021851;22;104709;-80
2021/01/03 03:48:01;;;;;;;;;21.25;20.25;;;;;13.01;51.55;98073.34;6022841;22;102795;-80
2021/01/03 03:50:28;;;;;;;;;20.50;18.00;;;;;13.02;51.96;98073.09;6026748;22;102750;-80
2021/01/03 03:52:54;;;;;;;;;27.00;22.25;;;;;13.02;52.07;98070.38;6015059;22;102799;-80
2021/01/03 03:55:21;;;;;;;;;23.00;20.25;;;;;13.01;51.92;98066.03;6025038;22;104028;-80
2021/01/03 03:57:49;;;;;;;;;21.00;20.00;;;;;12.99;50.95;98062.72;6024742;22;102912;-80
2021/01/03 04:00:20;;;;;;;;;21.00;19.25;;;;;12.99;51.04;98065.41;6028537;22;102744;-80
2021/01/03 04:02:47;;;;;;;;;24.50;21.75;;;;;13.00;51.10;98058.94;6028471;22;102686;-80
2021/01/03 04:05:16;;;;;;;;;23.00;20.50;;;;;12.98;51.46;98051.03;6022301;22;109009;-81
2021/01/03 04:07:43;;;;;;;;;24.00;21.00;;;;;12.98;51.27;98053.72;5996912;22;102889;-80
2021/01/03 04:10:10;;;;;;;;;23.75;19.00;;;;;12.96;51.75;98063.19;6000551;22;102565;-81
2021/01/03 04:12:37;;;;;;;;;23.25;20.50;;;;;12.97;51.03;98064.81;5988344;22;102844;-81
2021/01/03 04:15:09;;;;;;;;;22.50;19.00;;;;;12.95;51.73;98058.78;6029081;22;103877;-80
2021/01/03 04:17:35;;;;;;;;;20.75;20.25;;;;;12.96;51.97;98057.75;5975408;22;102586;-81
2021/01/03 04:20:06;;;;;;;;;21.25;19.75;;;;;12.95;51.10;98056.91;6024185;22;102497;-81
2021/01/03 04:22:33;;;;;;;;;25.25;23.00;;;;;12.97;51.43;98056.66;5995770;22;102851;-80
2021/01/03 04:25:00;;;;;;;;;25.00;20.50;;;;;12.96;51.18;98049.59;5990077;22;104107;-80
2021/01/03 04:27:26;;;;;;;;;24.00;19.50;;;;;12.94;51.98;98055.25;6009333;22;102646;-80
2021/01/03 04:29:53;;;;;;;;;19.50;19.00;;;;;12.93;51.88;98053.59;6007488;22;102497;-80
2021/01/03 04:32:20;;;;;;;;;19.50;19.25;;;;;12.90;51.34;98054.06;6010241;22;102881;-80
2021/01/03 04:34:46;;;;;;;;;24.00;22.00;;;;;12.92;51.00;98059.25;6027626;22;103842;-81
2021/01/03 04:37:17;;;;;;;;;21.25;19.50;;;;;12.92;51.18;98051.13;6021827;22;102800;-80
2021/01/03 04:39:43;;;;;;;;;24.25;20.75;;;;;12.91;51.11;98052.19;6020587;22;105879;-81
2021/01/03 04:42:18;;;;;;;;;24.00;21.25;;;;;12.91;51.08;98052.19;6022112;22;102756;-81
2021/01/03 04:44:53;;;;;;;;;23.25;21.00;;;;;12.92;51.17;98049.22;6029911;22;108929;-80
2021/01/03 04:47:27;;;;;;;;;22.25;19.25;;;;;12.90;51.40;98039.66;5991951;22;102786;-80
2021/01/03 04:50:07;;;;;;;;;21.25;20.00;;;;;12.89;51.06;98041.53;6022561;22;102642;-80
2021/01/03 04:53:04;;;;;;;;;25.75;21.00;;;;;12.89;51.05;98036.13;6023209;22;102727;-80
2021/01/03 04:55:32;;;;;;;;;26.00;20.00;;;;;12.89;51.40;98046.97;5929527;22;108376;-80
2021/01/03 04:58:05;;;;;;;;;22.75;19.50;;;;;12.88;51.04;98053.44;5992616;22;105751;-81
2021/01/03 05:00:34;;;;;;;;;21.00;19.75;;;;;12.89;50.84;98046.13;5971728;22;102663;-81
2021/01/03 05:03:13;;;;;;;;;22.50;20.00;;;;;12.86;51.77;98035.75;5977213;22;102891;-80
2021/01/03 05:05:44;;;;;;;;;21.00;17.75;;;;;12.87;52.01;98042.84;6000098;22;104217;-80
2021/01/03 05:08:46;;;;;;;;;21.00;18.00;;;;;12.86;51.36;98030.31;5970674;22;102822;-81
2021/01/03 05:11:16;;;;;;;;;20.00;17.00;;;;;12.86;51.82;98030.31;5905755;22;102781;-80
2021/01/03 05:14:27;;;;;;;;;3.50;2.25;;;;;12.85;51.37;98031.38;5994058;22;102924;-81
2021/01/03 05:16:54;;;;;;;;;24.50;18.25;;;;;12.85;51.32;98034.09;5968014;22;109192;-80
2021/01/03 05:19:21;;;;;;;;;22.75;20.00;;;;;12.84;50.90;98037.84;6050575;22;103148;-80
2021/01/03 05:21:54;;;;;;;;;21.50;20.00;;;;;12.83;51.19;98042.44;6015505;22;102613;-81
2021/01/03 05:24:30;;;;;;;;;20.25;19.00;;;;;12.82;51.18;98040.81;5996178;22;102845;-80
2021/01/03 05:27:16;;;;;;;;;18.75;17.50;;;;;12.84;51.35;98051.41;5993336;22;103829;-81
2021/01/03 05:29:43;;;;;;;;;24.25;21.00;;;;;12.83;51.10;98057.94;6023289;22;102807;-80
2021/01/03 05:32:10;;;;;;;;;23.25;19.50;;;;;12.80;51.61;98053.75;6023823;22;102998;-80
2021/01/03 05:34:41;;;;;;;;;18.75;18.25;;;;;12.82;51.60;98072.53;5995863;22;102498;-80
2021/01/03 05:37:11;;;;;;;;;17.00;15.00;;;;;12.80;51.18;98075.47;6018439;22;104202;-80
2021/01/03 05:39:38;;;;;;;;;17.25;15.50;;;;;12.80;51.26;98085.50;5994170;22;102547;-80
2021/01/03 05:42:18;;;;;;;;;20.50;19.00;;;;;12.80;51.92;98077.34;5991744;22;102810;-81
2021/01/03 05:44:57;;;;;;;;;20.75;19.50;;;;;12.79;51.16;98057.53;6014164;22;102925;-80
2021/01/03 05:47:38;;;;;;;;;21.75;18.00;;;;;12.80;51.66;98033.94;5988894;22;109311;-81
2021/01/03 05:50:25;;;;;;;;;22.25;18.75;;;;;12.80;51.04;98031.22;6014872;22;102728;-80
2021/01/03 05:53:09;;;;;;;;;18.75;16.50;;;;;12.79;50.81;98021.44;5995265;22;102409;-80
2021/01/03 05:55:36;;;;;;;;;22.50;18.75;;;;;12.76;51.23;98047.16;5999448;22;102846;-81
2021/01/03 05:58:37;;;;;;;;;25.50;19.50;;;;;12.79;50.89;98045.84;5965930;22;103881;-81
2021/01/03 06:01:24;;;;;;;;;23.00;19.00;;;;;12.77;51.61;98042.53;5866536;22;102804;-81
2021/01/03 06:04:06;;;;;;;;;21.00;19.25;;;;;12.77;51.61;98046.09;6011802;22;102607;-80
2021/01/03 06:06:50;;;;;;;;;24.75;17.25;;;;;12.77;51.32;98053.41;6018970;22;102808;-80
2021/01/03 06:09:19;;;;;;;;;19.25;18.00;;;;;12.76;51.88;98054.44;6022604;22;109069;-80
2021/01/03 06:12:13;;;;;;;;;19.25;14.50;;;;;12.75;51.25;98044.66;6010933;22;102651;-80
2021/01/03 06:14:40;;;;;;;;;21.00;18.75;;;;;12.75;51.27;98041.94;5915558;22;102723;-81
2021/01/03 06:17:16;;;;;;;;;20.00;17.50;;;;;12.75;51.72;98050.06;6016414;22;102639;-81
2021/01/03 06:19:51;;;;;;;;;23.25;20.00;;;;;12.73;51.13;98041.34;5996983;22;103969;-81
2021/01/03 06:22:41;;;;;;;;;20.50;15.50;;;;;12.73;51.37;98035.94;6012487;22;102624;-81
2021/01/03 06:25:18;;;;;;;;;20.75;18.00;;;;;12.74;51.72;98035.69;5915625;22;103349;-81
2021/01/03 06:27:46;;;;;;;;;19.00;17.25;;;;;12.72;51.88;98039.69;5974122;22;102669;-81
2021/01/03 06:30:13;;;;;;;;;17.25;15.25;;;;;12.70;52.01;98039.09;5994596;22;103699;-81
2021/01/03 06:33:13;;;;;;;;;19.75;18.00;;;;;12.71;50.99;98017.16;5965328;22;102620;-81
2021/01/03 06:35:43;;;;;;;;;19.50;16.00;;;;;12.71;51.12;98011.72;5926484;22;102936;-81
2021/01/03 06:38:45;;;;;;;;;22.00;19.50;;;;;12.70;51.43;98006.56;6019701;22;102823;-80
2021/01/03 06:41:15;;;;;;;;;17.75;17.00;;;;;12.69;51.63;98003.00;5918917;22;109189;-81
2021/01/03 06:44:04;;;;;;;;;21.25;19.25;;;;;12.70;51.02;98010.06;5991631;22;102762;-81
2021/01/03 06:46:43;;;;;;;;;19.50;18.50;;;;;12.70;51.17;98001.13;5934944;22;102799;-81
2021/01/03 06:49:33;;;;;;;;;21.25;16.25;;;;;12.69;51.08;98007.59;5996354;22;102677;-81
2021/01/03 06:52:07;;;;;;;;;20.00;17.25;;;;;12.69;51.17;98000.31;5916694;22;108471;-81
2021/01/03 06:54:58;;;;;;;;;20.25;17.50;;;;;12.68;51.54;98004.06;5993543;22;103051;-80
2021/01/03 06:57:46;;;;;;;;;15.50;14.25;;;;;12.69;51.25;98004.91;6017201;22;102513;-80
2021/01/03 07:00:20;;;;;;;;;26.75;20.00;;;;;12.68;51.69;98022.22;6023901;22;102886;-81
2021/01/03 07:02:49;;;;;;;;;18.25;16.50;;;;;12.68;51.19;98022.22;6021770;22;107131;-81
2021/01/03 07:05:16;;;;;;;;;21.50;19.25;;;;;12.67;51.14;98007.81;5997814;22;102744;-81
2021/01/03 07:08:09;;;;;;;;;18.50;16.50;;;;;12.64;51.99;98011.00;6023034;22;102435;-81
2021/01/03 07:10:39;;;;;;;;;17.75;16.00;;;;;12.65;50.88;98017.25;5868971;22;102854;-80
2021/01/03 07:13:27;;;;;;;;;21.75;19.75;;;;;12.65;51.08;98028.94;6016824;22;103781;-80
2021/01/03 07:15:57;;;;;;;;;17.75;15.50;;;;;12.65;51.80;98017.25;6026151;22;102818;-80
2021/01/03 07:18:29;;;;;;;;;18.75;17.25;;;;;12.65;51.89;98019.97;6018353;22;102481;-81
2021/01/03 07:21:05;;;;;;;;;18.75;16.25;;;;;12.65;50.99;98033.53;5997102;22;102850;-80
2021/01/03 07:23:43;;;;;;;;;19.25;18.25;;;;;12.65;51.37;98025.41;6015918;22;104636;-81
2021/01/03 07:26:29;;;;;;;;;20.00;18.00;;;;;12.62;51.30;98023.13;6002027;22;102883;-80
2021/01/03 07:29:07;;;;;;;;;15.00;14.75;;;;;12.64;51.51;98031.88;5887307;22;102821;-80
2021/01/03 07:31:53;;;;;;;;;19.00;16.75;;;;;12.63;51.15;98024.78;5996928;22;102875;-81
2021/01/03 07:34:28;;;;;;;;;22.00;16.00;;;;;12.62;51.76;98028.53;6001464;22;108689;-80
2021/01/03 07:36:57;;;;;;;;;19.25;14.75;;;;;12.63;51.46;98035.63;5958467;22;102727;-80
2021/01/03 07:39:31;;;;;;;;;19.00;18.00;;;;;12.59;51.20;98026.28;5991093;22;102519;-80
2021/01/03 07:42:21;;;;;;;;;18.00;16.50;;;;;12.60;51.42;98028.78;5996722;22;102954;-81
2021/01/03 07:44:48;;;;;;;;;17.50;16.00;;;;;12.60;51.57;98046.94;5975829;22;104159;-81
2021/01/03 07:47:50;;;;;;;;;17.50;15.25;;;;;12.61;51.07;98025.00;5969824;22;102858;-81
2021/01/03 07:50:23;;;;;;;;;19.00;18.00;;;;;12.60;51.27;98028.78;5901871;22;102508;-81
2021/01/03 07:52:59;;;;;;;;;15.50;13.50;;;;;12.61;50.93;98021.50;5994147;22;102813;-81
2021/01/03 07:55:29;;;;;;;;;17.25;15.50;;;;;12.57;50.97;98006.69;6017604;22;109243;-80
2021/01/03 07:57:58;;;;;;;;;17.50;15.25;;;;;12.59;51.33;98034.44;6020997;22;102651;-80
2021/01/03 08:00:27;;;;;;;;;18.75;15.00;;;;;12.59;51.52;98019.00;6020185;22;102524;-80
2021/01/03 08:02:56;;;;;;;;;17.75;14.00;;;;;12.59;50.93;98010.03;6021082;22;104110;-80
2021/01/03 08:05:24;;;;;;;;;16.50;15.50;;;;;12.59;51.03;98012.75;6019752;22;109565;-80
2021/01/03 08:07:50;;;;;;;;;19.00;16.00;;;;;12.59;50.87;98013.56;6022333;22;102554;-81
2021/01/03 08:10:17;;;;;;;;;18.25;15.25;;;;;12.60;51.62;98025.25;6021067;22;102586;-80
2021/01/03 08:12:47;;;;;;;;;19.00;17.00;;;;;12.58;51.51;98028.19;6018865;22;102567;-80
2021/01/03 08:15:27;;;;;;;;;16.00;15.50;;;;;12.58;51.33;98046.34;6021302;22;104323;-81
2021/01/03 08:18:16;;;;;;;;;19.75;17.75;;;;;12.55;51.04;98041.38;5992982;22;105990;-76
2021/01/03 08:20:42;;;;;;;;;17.25;15.50;;;;;12.57;51.64;98031.09;5921267;22;103885;-80
2021/01/03 08:23:22;;;;;;;;;15.00;15.00;;;;;12.56;51.07;98021.34;6024749;22;102734;-80
2021/01/03 08:26:00;;;;;;;;;13.00;12.00;;;;;12.56;51.45;98007.78;6023798;22;103707;-81
2021/01/03 08:28:27;;;;;;;;;19.25;18.75;;;;;12.56;51.58;98002.34;5992948;22;102785;-80
2021/01/03 08:30:54;;;;;;;;;22.50;16.50;;;;;12.55;51.90;98006.13;5977806;22;102832;-81
2021/01/03 08:33:29;;;;;;;;;19.00;16.50;;;;;12.53;50.83;98009.88;5977761;22;102845;-80
2021/01/03 08:35:56;;;;;;;;;17.25;15.75;;;;;12.55;51.62;98006.13;5966483;22;108913;-80
2021/01/03 08:38:27;;;;;;;;;17.00;16.75;;;;;12.54;51.36;98010.72;5993894;22;102743;-79
2021/01/03 08:41:02;;;;;;;;;17.25;15.00;;;;;12.53;51.00;98028.84;6021817;22;102746;-79
2021/01/03 08:43:29;;;;;;;;;20.50;15.00;;;;;12.55;50.86;98041.38;6024200;22;102882;-79
2021/01/03 08:46:00;;;;;;;;;16.25;13.50;;;;;12.55;51.81;98054.94;5996076;22;103929;-78
2021/01/03 08:48:26;;;;;;;;;15.75;15.25;;;;;12.53;51.16;98053.28;5998615;22;102757;-79
2021/01/03 08:51:11;;;;;;;;;14.00;13.25;;;;;12.53;51.07;98055.16;5963400;22;102781;-79
2021/01/03 08:53:37;;;;;;;;;16.00;16.00;;;;;12.52;50.86;98057.03;5910776;22;102927;-78
2021/01/03 08:56:23;;;;;;;;;16.50;15.75;;;;;12.51;51.54;98049.97;6024257;22;104668;-78
2021/01/03 08:58:49;;;;;;;;;16.75;15.25;;;;;12.52;51.02;98051.59;6016040;22;102713;-78
2021/01/03 09:01:29;;;;;;;;;16.75;14.75;;;;;12.52;50.78;98050.78;6000396;22;102728;-78
2021/01/03 09:04:03;;;;;;;;;18.00;14.00;;;;;12.49;51.44;98046.66;6025234;22;102760;-78
2021/01/03 09:06:30;;;;;;;;;13.00;13.00;;;;;12.50;51.21;98051.03;5991302;22;109000;-78
2021/01/03 09:08:57;;;;;;;;;18.25;15.75;;;;;12.48;51.22;98055.81;5976165;22;102808;-78
2021/01/03 09:11:28;;;;;;;;;16.00;12.50;;;;;12.52;51.09;98072.47;6003314;22;102767;-79
2021/01/03 09:14:21;;;;;;;;;16.25;15.75;;;;;12.51;51.00;98060.81;5969528;22;102650;-79
2021/01/03 09:17:00;;;;;;;;;18.00;16.00;;;;;12.51;51.50;98057.28;5902271;22;108562;-79
2021/01/03 09:19:30;;;;;;;;;15.00;14.25;;;;;12.51;51.61;98052.69;5992483;22;102689;-75
2021/01/03 09:21:59;;;;;;;;;15.00;15.00;;;;;12.50;51.32;98028.50;5993903;22;102885;-78
2021/01/03 09:24:31;;;;;;;;;17.00;16.00;;;;;12.50;50.92;98042.88;5978065;22;102864;-79
2021/01/03 09:26:59;;;;;;;;;12.50;12.25;;;;;12.50;51.08;98061.03;5971848;22;109294;-79
2021/01/03 09:29:35;;;;;;;;;18.25;14.50;;;;;12.49;51.12;98019.53;6001047;22;106140;-79
2021/01/03 09:32:29;;;;;;;;;19.75;16.50;;;;;12.50;51.78;98004.91;5895354;22;102980;-79
2021/01/03 09:34:58;;;;;;;;;16.50;15.25;;;;;12.50;51.08;98001.38;5977610;22;102771;-79
2021/01/03 09:37:27;;;;;;;;;17.50;14.50;;;;;12.49;51.48;98008.69;6026964;22;108923;-79
2021/01/03 09:40:08;;;;;;;;;17.00;16.00;;;;;12.49;51.32;97995.13;6024268;22;102834;-79
2021/01/03 09:42:37;;;;;;;;;15.00;13.00;;;;;12.49;51.69;98019.53;5897304;22;103008;-79
2021/01/03 09:45:36;;;;;;;;;15.25;13.50;;;;;12.48;51.10;98028.72;6000905;22;102777;-79
2021/01/03 09:48:03;;;;;;;;;14.00;13.00;;;;;12.49;51.54;98018.69;5931289;22;108922;-79
2021/01/03 09:50:38;;;;;;;;;20.75;18.50;;;;;12.49;51.76;98038.50;6025440;22;102761;-79
2021/01/03 09:53:20;;;;;;;;;18.50;14.25;;;;;12.48;51.30;98036.84;6024769;22;102745;-79
2021/01/03 09:56:01;;;;;;;;;18.50;14.75;;;;;12.48;51.53;98039.56;6023957;22;102812;-79
2021/01/03 09:58:38;;;;;;;;;17.75;16.00;;;;;12.49;51.29;98035.78;6025586;22;108211;-77
2021/01/03 10:01:06;;;;;;;;;14.50;14.00;;;;;12.49;51.99;98034.97;6026354;22;102639;-77
2021/01/03 10:03:41;;;;;;;;;14.25;10.50;;;;;12.48;51.62;98038.72;6024432;22;102729;-78
2021/01/03 10:06:35;;;;;;;;;16.50;14.00;;;;;12.48;51.11;98028.72;6032863;22;102767;-80
2021/01/03 10:09:15;;;;;;;;;16.50;15.00;;;;;12.48;51.25;98031.41;5960017;22;109860;-79
2021/01/03 10:11:42;;;;;;;;;18.50;16.00;;;;;12.48;51.25;98034.13;6026917;22;102751;-79
2021/01/03 10:14:15;;;;;;;;;17.25;16.25;;;;;12.48;51.53;98036.00;6029909;22;102532;-79
2021/01/03 10:16:42;;;;;;;;;19.25;17.00;;;;;12.48;51.44;98020.56;5999127;22;102824;-79
2021/01/03 10:19:14;;;;;;;;;20.00;17.50;;;;;12.50;51.73;98031.22;6027207;22;103919;-79
2021/01/03 10:21:42;;;;;;;;;23.00;20.50;;;;;12.50;51.85;98021.19;6002613;22;102743;-79
2021/01/03 10:24:23;;;;;;;;;21.25;17.75;;;;;12.49;51.84;98019.53;6024928;22;102470;-79
2021/01/03 10:27:05;;;;;;;;;18.75;17.50;;;;;12.50;51.94;98023.91;5999280;22;102757;-79
2021/01/03 10:29:32;;;;;;;;;22.25;17.75;;;;;12.49;51.23;98019.53;5869479;22;108493;-79
2021/01/03 10:32:00;;;;;;;;;24.00;20.25;;;;;12.50;50.86;98021.19;6028114;22;102843;-79
2021/01/03 10:34:27;;;;;;;;;20.25;18.25;;;;;12.47;50.76;98010.78;6004539;22;102786;-79
2021/01/03 10:36:59;;;;;;;;;21.50;17.00;;;;;12.50;51.41;98020.34;6028607;22;102772;-79
2021/01/03 10:39:27;;;;;;;;;24.75;19.75;;;;;12.48;51.40;98017.03;6020748;22;108142;-79
2021/01/03 10:41:53;;;;;;;;;18.25;16.00;;;;;12.49;51.24;98005.13;6026964;22;102754;-79
2021/01/03 10:44:20;;;;;;;;;24.75;20.00;;;;;12.47;50.97;98010.78;6076279;22;102577;-79
2021/01/03 10:46:48;;;;;;;;;20.50;18.50;;;;;12.47;50.85;98001.84;6024858;22;105178;-79
2021/01/03 10:49:14;;;;;;;;;18.50;16.75;;;;;12.47;51.54;97993.72;6000461;22;104214;-79
2021/01/03 10:51:43;;;;;;;;;19.00;16.25;;;;;12.47;51.33;97986.38;6023743;22;102776;-79
2021/01/03 10:54:12;;;;;;;;;21.25;17.50;;;;;12.47;51.65;97991.78;6023896;22;102589;-79
2021/01/03 10:56:39;;;;;;;;;18.25;15.75;;;;;12.48;50.84;97990.75;6027955;22;102692;-79
2021/01/03 10:59:06;;;;;;;;;17.00;15.00;;;;;12.46;51.07;97992.88;6021215;22;103546;-79
2021/01/03 11:01:37;;;;;;;;;19.00;17.25;;;;;12.47;51.21;97999.94;6016820;22;102749;-79
2021/01/03 11:04:05;;;;;;;;;20.75;16.50;;;;;12.47;51.50;97991.78;5997885;22;102499;-79
2021/01/03 11:06:41;;;;;;;;;18.00;16.50;;;;;12.46;50.96;97995.59;6022720;22;102854;-78
2021/01/03 11:09:13;;;;;;;;;18.25;16.00;;;;;12.47;51.30;97980.94;6026407;22;103974;-78
2021/01/03 11:11:40;;;;;;;;;21.00;17.25;;;;;12.46;51.29;97992.88;6026528;22;102846;-78
2021/01/03 11:14:07;;;;;;;;;18.50;17.25;;;;;12.45;51.04;97984.97;6007537;22;102851;-79
2021/01/03 11:16:40;;;;;;;;;19.25;16.00;;;;;12.48;51.05;97981.78;6015524;22;102776;-78
2021/01/03 11:19:09;;;;;;;;;17.00;16.75;;;;;12.45;51.54;97983.06;6027056;22;104276;-78
2021/01/03 11:21:36;;;;;;;;;21.25;16.25;;;;;12.47;50.43;97983.66;5999149;22;102582;-79
2021/01/03 11:24:04;;;;;;;;;20.00;17.75;;;;;12.46;50.87;97978.50;6021717;22;103205;-78
2021/01/03 11:26:33;;;;;;;;;20.75;18.75;;;;;12.45;50.48;97979.53;6023575;22;102823;-78
2021/01/03 11:29:00;;;;;;;;;19.50;17.00;;;;;12.44;51.09;97980.59;6023359;22;104175;-78
2021/01/03 11:31:35;;;;;;;;;18.00;16.75;;;;;12.45;50.54;97985.78;6026080;22;102583;-79
2021/01/03 11:34:07;;;;;;;;;14.50;14.50;;;;;12.45;51.12;97988.50;5956175;22;102998;-79